sensor_id;sensor_type;location;lat;lon;timestamp;temperature;humidity
9393;DHT22;4736;52.508;13.422;2022-11-23T00:01:49;1.70;1.00
9393;DHT22;4736;52.508;13.422;2022-11-23T00:04:52;1.80;1.00
9393;DHT22;4736;52.508;13.422;2022-11-23T00:07:55;1.50;1.00
9393;DHT22;4736;52.508;13.422;2022-11-23T00:10:58;1.50;1.00
9393;DHT22;4736;52.508;13.422;2022-11-23T00:14:03;1.60;1.00
9393;DHT22;4736;52.508;13.422;2022-11-23T00:17:06;1.50;1.00
9393;DHT22;4736;52.508;13.422;2022-11-23T00:20:09;1.50;1.00
9393;DHT22;4736;52.508;13.422;2022-11-23T00:23:12;1.60;1.00
9393;DHT22;4736;52.508;13.422;2022-11-23T00:26:16;1.50;1.00
9393;DHT22;4736;52.508;13.422;2022-11-23T00:29:21;1.60;1.00
9393;DHT22;4736;52.508;13.422;2022-11-23T00:32:24;1.70;1.00
9393;DHT22;4736;52.508;13.422;2022-11-23T00:35:28;1.80;1.00
9393;DHT22;4736;52.508;13.422;2022-11-23T00:38:31;1.50;1.00
9393;DHT22;4736;52.508;13.422;2022-11-23T00:41:34;1.50;1.00
9393;DHT22;4736;52.508;13.422;2022-11-23T00:44:38;1.70;1.00
9393;DHT22;4736;52.508;13.422;2022-11-23T00:47:41;1.60;1.00
9393;DHT22;4736;52.508;13.422;2022-11-23T00:50:44;1.60;1.00
9393;DHT22;4736;52.508;13.422;2022-11-23T00:53:48;1.70;1.00
9393;DHT22;4736;52.508;13.422;2022-11-23T00:56:51;1.70;1.00
9393;DHT22;4736;52.508;13.422;2022-11-23T00:59:55;1.60;1.00
9393;DHT22;4736;52.508;13.422;2022-11-23T01:02:58;1.50;1.00
9393;DHT22;4736;52.508;13.422;2022-11-23T01:06:06;1.60;1.00
9393;DHT22;4736;52.508;13.422;2022-11-23T01:09:12;1.50;1.00
9393;DHT22;4736;52.508;13.422;2022-11-23T01:12:16;1.80;1.00
9393;DHT22;4736;52.508;13.422;2022-11-23T01:15:21;1.50;1.00
9393;DHT22;4736;52.508;13.422;2022-11-23T01:18:24;1.40;1.00
9393;DHT22;4736;52.508;13.422;2022-11-23T01:21:28;1.70;1.00
9393;DHT22;4736;52.508;13.422;2022-11-23T01:24:32;1.50;1.00
9393;DHT22;4736;52.508;13.422;2022-11-23T01:27:34;1.60;1.00
9393;DHT22;4736;52.508;13.422;2022-11-23T01:30:39;1.40;1.00
9393;DHT22;4736;52.508;13.422;2022-11-23T01:33:42;1.50;1.00
9393;DHT22;4736;52.508;13.422;2022-11-23T01:36:45;1.40;1.00
9393;DHT22;4736;52.508;13.422;2022-11-23T01:39:48;1.60;1.00
9393;DHT22;4736;52.508;13.422;2022-11-23T01:42:53;1.60;1.00
9393;DHT22;4736;52.508;13.422;2022-11-23T01:45:59;1.70;1.00
9393;DHT22;4736;52.508;13.422;2022-11-23T01:49:04;1.80;1.00
9393;DHT22;4736;52.508;13.422;2022-11-23T01:52:11;1.70;1.00
9393;DHT22;4736;52.508;13.422;2022-11-23T01:55:14;1.90;1.00
9393;DHT22;4736;52.508;13.422;2022-11-23T01:58:21;1.90;1.00
9393;DHT22;4736;52.508;13.422;2022-11-23T02:01:26;2.00;1.00
9393;DHT22;4736;52.508;13.422;2022-11-23T02:04:32;1.80;1.00
9393;DHT22;4736;52.508;13.422;2022-11-23T02:07:36;1.90;1.00
9393;DHT22;4736;52.508;13.422;2022-11-23T02:10:39;1.80;1.00
9393;DHT22;4736;52.508;13.422;2022-11-23T02:13:44;1.90;1.00
9393;DHT22;4736;52.508;13.422;2022-11-23T02:16:50;1.90;1.00
9393;DHT22;4736;52.508;13.422;2022-11-23T02:19:58;2.10;1.00
9393;DHT22;4736;52.508;13.422;2022-11-23T02:23:13;2.10;1.00
9393;DHT22;4736;52.508;13.422;2022-11-23T02:26:21;2.00;1.00
9393;DHT22;4736;52.508;13.422;2022-11-23T02:29:26;2.20;1.00
9393;DHT22;4736;52.508;13.422;2022-11-23T02:32:30;2.00;1.00
9393;DHT22;4736;52.508;13.422;2022-11-23T02:35:35;2.00;1.00
9393;DHT22;4736;52.508;13.422;2022-11-23T02:38:38;2.00;1.00
9393;DHT22;4736;52.508;13.422;2022-11-23T02:41:44;2.00;1.00
9393;DHT22;4736;52.508;13.422;2022-11-23T02:44:53;2.00;1.00
9393;DHT22;4736;52.508;13.422;2022-11-23T02:48:02;2.00;1.00
9393;DHT22;4736;52.508;13.422;2022-11-23T02:51:05;2.00;1.00
9393;DHT22;4736;52.508;13.422;2022-11-23T02:54:08;2.00;1.00
9393;DHT22;4736;52.508;13.422;2022-11-23T02:57:13;2.00;1.00
9393;DHT22;4736;52.508;13.422;2022-11-23T03:00:16;2.00;1.00
9393;DHT22;4736;52.508;13.422;2022-11-23T03:03:19;2.10;1.00
9393;DHT22;4736;52.508;13.422;2022-11-23T03:06:22;2.20;1.00
9393;DHT22;4736;52.508;13.422;2022-11-23T03:09:25;2.00;1.00
9393;DHT22;4736;52.508;13.422;2022-11-23T03:12:30;1.90;1.00
9393;DHT22;4736;52.508;13.422;2022-11-23T03:15:33;1.90;1.00
9393;DHT22;4736;52.508;13.422;2022-11-23T03:18:36;1.90;1.00
9393;DHT22;4736;52.508;13.422;2022-11-23T03:21:38;1.70;1.00
9393;DHT22;4736;52.508;13.422;2022-11-23T03:24:41;2.10;1.00
9393;DHT22;4736;52.508;13.422;2022-11-23T03:27:46;1.90;1.00
9393;DHT22;4736;52.508;13.422;2022-11-23T03:30:49;1.70;1.00
9393;DHT22;4736;52.508;13.422;2022-11-23T03:33:52;1.70;1.00
9393;DHT22;4736;52.508;13.422;2022-11-23T03:36:55;1.80;1.00
9393;DHT22;4736;52.508;13.422;2022-11-23T03:39:58;1.80;1.00
9393;DHT22;4736;52.508;13.422;2022-11-23T03:43:03;1.60;1.00
9393;DHT22;4736;52.508;13.422;2022-11-23T03:46:06;1.50;1.00
9393;DHT22;4736;52.508;13.422;2022-11-23T03:49:09;1.60;1.00
9393;DHT22;4736;52.508;13.422;2022-11-23T03:52:12;1.70;1.00
9393;DHT22;4736;52.508;13.422;2022-11-23T03:55:15;2.00;1.00
9393;DHT22;4736;52.508;13.422;2022-11-23T03:58:20;1.40;1.00
9393;DHT22;4736;52.508;13.422;2022-11-23T04:01:23;1.70;1.00
9393;DHT22;4736;52.508;13.422;2022-11-23T04:04:26;1.50;1.00
9393;DHT22;4736;52.508;13.422;2022-11-23T04:07:29;1.70;1.00
9393;DHT22;4736;52.508;13.422;2022-11-23T04:10:32;1.40;1.00
9393;DHT22;4736;52.508;13.422;2022-11-23T04:13:37;1.50;1.00
9393;DHT22;4736;52.508;13.422;2022-11-23T04:16:40;1.60;1.00
9393;DHT22;4736;52.508;13.422;2022-11-23T04:19:43;1.60;1.00
9393;DHT22;4736;52.508;13.422;2022-11-23T04:22:46;1.60;1.00
9393;DHT22;4736;52.508;13.422;2022-11-23T04:25:49;1.50;1.00
9393;DHT22;4736;52.508;13.422;2022-11-23T04:28:53;1.60;1.00
9393;DHT22;4736;52.508;13.422;2022-11-23T04:31:56;1.60;1.00
9393;DHT22;4736;52.508;13.422;2022-11-23T04:34:59;1.60;1.00
9393;DHT22;4736;52.508;13.422;2022-11-23T04:38:02;1.70;1.00
9393;DHT22;4736;52.508;13.422;2022-11-23T04:41:05;1.50;1.00
9393;DHT22;4736;52.508;13.422;2022-11-23T04:44:10;1.50;1.00
9393;DHT22;4736;52.508;13.422;2022-11-23T04:47:12;1.60;1.00
9393;DHT22;4736;52.508;13.422;2022-11-23T04:50:16;1.60;1.00
9393;DHT22;4736;52.508;13.422;2022-11-23T04:53:19;1.50;1.00
9393;DHT22;4736;52.508;13.422;2022-11-23T04:56:21;1.60;1.00
9393;DHT22;4736;52.508;13.422;2022-11-23T04:59:26;1.60;1.00
9393;DHT22;4736;52.508;13.422;2022-11-23T05:02:29;1.40;1.00
9393;DHT22;4736;52.508;13.422;2022-11-23T05:05:32;1.40;1.00
9393;DHT22;4736;52.508;13.422;2022-11-23T05:08:36;1.50;1.00
9393;DHT22;4736;52.508;13.422;2022-11-23T05:11:39;1.50;1.00
9393;DHT22;4736;52.508;13.422;2022-11-23T05:14:43;1.40;1.00
9393;DHT22;4736;52.508;13.422;2022-11-23T05:17:46;1.50;1.00
9393;DHT22;4736;52.508;13.422;2022-11-23T05:20:49;1.40;1.00
9393;DHT22;4736;52.508;13.422;2022-11-23T05:23:52;1.50;1.00
9393;DHT22;4736;52.508;13.422;2022-11-23T05:26:55;1.50;1.00
9393;DHT22;4736;52.508;13.422;2022-11-23T05:30:00;1.50;1.00
9393;DHT22;4736;52.508;13.422;2022-11-23T05:33:03;1.70;1.00
9393;DHT22;4736;52.508;13.422;2022-11-23T05:36:06;1.70;1.00
9393;DHT22;4736;52.508;13.422;2022-11-23T05:39:10;1.70;1.00
9393;DHT22;4736;52.508;13.422;2022-11-23T05:42:13;1.70;1.00
9393;DHT22;4736;52.508;13.422;2022-11-23T05:45:17;1.70;1.00
9393;DHT22;4736;52.508;13.422;2022-11-23T05:48:20;1.80;1.00
9393;DHT22;4736;52.508;13.422;2022-11-23T05:51:23;1.70;1.00
9393;DHT22;4736;52.508;13.422;2022-11-23T05:54:26;1.80;1.00
9393;DHT22;4736;52.508;13.422;2022-11-23T05:57:29;1.70;1.00
9393;DHT22;4736;52.508;13.422;2022-11-23T06:00:33;1.70;1.00
9393;DHT22;4736;52.508;13.422;2022-11-23T06:03:36;1.70;1.00
9393;DHT22;4736;52.508;13.422;2022-11-23T06:06:39;1.70;1.00
9393;DHT22;4736;52.508;13.422;2022-11-23T06:09:42;2.00;1.00
9393;DHT22;4736;52.508;13.422;2022-11-23T06:12:45;1.90;1.00
9393;DHT22;4736;52.508;13.422;2022-11-23T06:15:49;1.70;1.00
9393;DHT22;4736;52.508;13.422;2022-11-23T06:18:52;1.70;1.00
9393;DHT22;4736;52.508;13.422;2022-11-23T06:21:55;1.70;1.00
9393;DHT22;4736;52.508;13.422;2022-11-23T06:24:58;1.60;1.00
9393;DHT22;4736;52.508;13.422;2022-11-23T06:28:03;1.50;1.00
9393;DHT22;4736;52.508;13.422;2022-11-23T06:31:08;1.60;1.00
9393;DHT22;4736;52.508;13.422;2022-11-23T06:34:12;1.60;1.00
9393;DHT22;4736;52.508;13.422;2022-11-23T06:37:15;1.70;1.00
9393;DHT22;4736;52.508;13.422;2022-11-23T06:40:18;1.60;1.00
9393;DHT22;4736;52.508;13.422;2022-11-23T06:43:21;1.60;1.00
9393;DHT22;4736;52.508;13.422;2022-11-23T06:46:25;1.40;1.00
9393;DHT22;4736;52.508;13.422;2022-11-23T06:49:28;1.60;1.00
9393;DHT22;4736;52.508;13.422;2022-11-23T06:52:31;1.40;1.00
9393;DHT22;4736;52.508;13.422;2022-11-23T06:55:34;1.30;1.00
9393;DHT22;4736;52.508;13.422;2022-11-23T06:58:37;1.50;1.00
9393;DHT22;4736;52.508;13.422;2022-11-23T07:01:42;1.30;1.00
9393;DHT22;4736;52.508;13.422;2022-11-23T07:04:45;1.30;1.00
9393;DHT22;4736;52.508;13.422;2022-11-23T07:07:48;1.30;1.00
9393;DHT22;4736;52.508;13.422;2022-11-23T07:10:51;1.40;1.00
9393;DHT22;4736;52.508;13.422;2022-11-23T07:13:54;1.40;1.00
9393;DHT22;4736;52.508;13.422;2022-11-23T07:16:58;1.40;1.00
9393;DHT22;4736;52.508;13.422;2022-11-23T07:20:01;1.40;1.00
9393;DHT22;4736;52.508;13.422;2022-11-23T07:23:05;1.40;1.00
9393;DHT22;4736;52.508;13.422;2022-11-23T07:26:08;1.30;1.00
9393;DHT22;4736;52.508;13.422;2022-11-23T07:29:12;1.50;1.00
9393;DHT22;4736;52.508;13.422;2022-11-23T07:32:16;1.50;1.00
9393;DHT22;4736;52.508;13.422;2022-11-23T07:35:19;1.40;1.00
9393;DHT22;4736;52.508;13.422;2022-11-23T07:38:22;1.50;1.00
9393;DHT22;4736;52.508;13.422;2022-11-23T07:41:25;1.40;1.00
9393;DHT22;4736;52.508;13.422;2022-11-23T07:44:29;1.60;1.00
9393;DHT22;4736;52.508;13.422;2022-11-23T07:47:33;1.50;1.00
9393;DHT22;4736;52.508;13.422;2022-11-23T07:50:37;1.90;1.00
9393;DHT22;4736;52.508;13.422;2022-11-23T07:53:40;1.90;1.00
9393;DHT22;4736;52.508;13.422;2022-11-23T07:56:43;1.80;1.00
9393;DHT22;4736;52.508;13.422;2022-11-23T07:59:46;1.80;1.00
9393;DHT22;4736;52.508;13.422;2022-11-23T08:02:51;2.00;1.00
9393;DHT22;4736;52.508;13.422;2022-11-23T08:06:14;2.10;1.00
9393;DHT22;4736;52.508;13.422;2022-11-23T08:09:17;2.20;1.00
9393;DHT22;4736;52.508;13.422;2022-11-23T08:12:20;2.20;1.00
9393;DHT22;4736;52.508;13.422;2022-11-23T08:15:23;2.10;1.00
9393;DHT22;4736;52.508;13.422;2022-11-23T08:18:30;2.20;1.00
9393;DHT22;4736;52.508;13.422;2022-11-23T08:21:33;2.20;1.00
9393;DHT22;4736;52.508;13.422;2022-11-23T08:24:35;2.30;1.00
9393;DHT22;4736;52.508;13.422;2022-11-23T08:27:38;2.20;1.00
9393;DHT22;4736;52.508;13.422;2022-11-23T08:30:41;2.30;1.00
9393;DHT22;4736;52.508;13.422;2022-11-23T08:33:46;2.40;1.00
9393;DHT22;4736;52.508;13.422;2022-11-23T08:36:49;2.50;1.00
9393;DHT22;4736;52.508;13.422;2022-11-23T08:39:52;2.60;1.00
9393;DHT22;4736;52.508;13.422;2022-11-23T08:42:55;2.50;1.00
9393;DHT22;4736;52.508;13.422;2022-11-23T08:45:58;2.80;1.00
9393;DHT22;4736;52.508;13.422;2022-11-23T08:49:10;2.80;1.00
9393;DHT22;4736;52.508;13.422;2022-11-23T08:52:13;2.80;1.00
9393;DHT22;4736;52.508;13.422;2022-11-23T08:55:16;2.80;1.00
9393;DHT22;4736;52.508;13.422;2022-11-23T08:58:19;2.80;1.00
9393;DHT22;4736;52.508;13.422;2022-11-23T09:01:22;2.90;1.00
9393;DHT22;4736;52.508;13.422;2022-11-23T09:04:27;2.90;1.00
9393;DHT22;4736;52.508;13.422;2022-11-23T09:07:31;3.10;1.00
9393;DHT22;4736;52.508;13.422;2022-11-23T09:10:35;3.10;1.00
9393;DHT22;4736;52.508;13.422;2022-11-23T09:13:38;3.30;1.00
9393;DHT22;4736;52.508;13.422;2022-11-23T09:16:41;3.20;1.00
9393;DHT22;4736;52.508;13.422;2022-11-23T09:19:47;3.20;1.00
9393;DHT22;4736;52.508;13.422;2022-11-23T09:22:51;3.40;1.00
9393;DHT22;4736;52.508;13.422;2022-11-23T09:25:57;3.40;1.00
9393;DHT22;4736;52.508;13.422;2022-11-23T09:29:00;3.50;1.00
9393;DHT22;4736;52.508;13.422;2022-11-23T09:32:03;3.70;1.00
9393;DHT22;4736;52.508;13.422;2022-11-23T09:35:08;3.90;1.00
9393;DHT22;4736;52.508;13.422;2022-11-23T09:38:11;4.10;1.00
9393;DHT22;4736;52.508;13.422;2022-11-23T09:41:24;4.30;1.00
9393;DHT22;4736;52.508;13.422;2022-11-23T09:44:43;4.50;1.00
9393;DHT22;4736;52.508;13.422;2022-11-23T09:48:04;4.60;1.00
9393;DHT22;4736;52.508;13.422;2022-11-23T09:51:16;4.60;1.00
9393;DHT22;4736;52.508;13.422;2022-11-23T09:54:25;4.60;1.00
9393;DHT22;4736;52.508;13.422;2022-11-23T09:57:31;4.60;1.00
9393;DHT22;4736;52.508;13.422;2022-11-23T10:00:37;4.60;1.00
9393;DHT22;4736;52.508;13.422;2022-11-23T10:03:43;4.70;1.00
9393;DHT22;4736;52.508;13.422;2022-11-23T10:06:54;4.70;1.00
9393;DHT22;4736;52.508;13.422;2022-11-23T10:10:05;4.80;1.00
9393;DHT22;4736;52.508;13.422;2022-11-23T10:13:25;4.90;1.00
9393;DHT22;4736;52.508;13.422;2022-11-23T10:16:36;5.10;1.00
9393;DHT22;4736;52.508;13.422;2022-11-23T10:19:56;5.30;1.00
9393;DHT22;4736;52.508;13.422;2022-11-23T10:23:12;5.20;1.00
9393;DHT22;4736;52.508;13.422;2022-11-23T10:26:20;5.40;1.00
9393;DHT22;4736;52.508;13.422;2022-11-23T10:29:26;5.40;1.00
9393;DHT22;4736;52.508;13.422;2022-11-23T10:32:33;5.60;1.00
9393;DHT22;4736;52.508;13.422;2022-11-23T10:35:38;5.70;1.00
9393;DHT22;4736;52.508;13.422;2022-11-23T10:38:43;5.70;1.00
9393;DHT22;4736;52.508;13.422;2022-11-23T10:41:46;5.80;1.00
9393;DHT22;4736;52.508;13.422;2022-11-23T10:44:50;5.80;1.00
9393;DHT22;4736;52.508;13.422;2022-11-23T10:47:56;6.00;1.00
9393;DHT22;4736;52.508;13.422;2022-11-23T10:51:14;6.20;1.00
9393;DHT22;4736;52.508;13.422;2022-11-23T10:54:22;6.40;1.00
9393;DHT22;4736;52.508;13.422;2022-11-23T10:57:30;6.50;1.00
9393;DHT22;4736;52.508;13.422;2022-11-23T11:00:34;6.60;1.00
9393;DHT22;4736;52.508;13.422;2022-11-23T11:03:37;6.70;1.00
9393;DHT22;4736;52.508;13.422;2022-11-23T11:06:40;6.80;1.00
9393;DHT22;4736;52.508;13.422;2022-11-23T11:09:48;6.90;1.00
9393;DHT22;4736;52.508;13.422;2022-11-23T11:12:51;7.10;1.00
9393;DHT22;4736;52.508;13.422;2022-11-23T11:15:56;7.10;1.00
9393;DHT22;4736;52.508;13.422;2022-11-23T11:19:00;7.10;1.00
9393;DHT22;4736;52.508;13.422;2022-11-23T11:22:28;7.20;1.00
9393;DHT22;4736;52.508;13.422;2022-11-23T11:25:36;7.30;1.00
9393;DHT22;4736;52.508;13.422;2022-11-23T11:28:42;7.20;1.00
9393;DHT22;4736;52.508;13.422;2022-11-23T11:31:51;7.30;1.00
9393;DHT22;4736;52.508;13.422;2022-11-23T11:35:01;7.30;1.00
9393;DHT22;4736;52.508;13.422;2022-11-23T11:38:10;7.30;1.00
9393;DHT22;4736;52.508;13.422;2022-11-23T11:41:18;7.40;1.00
9393;DHT22;4736;52.508;13.422;2022-11-23T11:44:26;7.50;1.00
9393;DHT22;4736;52.508;13.422;2022-11-23T11:47:32;7.40;1.00
9393;DHT22;4736;52.508;13.422;2022-11-23T11:50:43;7.60;1.00
9393;DHT22;4736;52.508;13.422;2022-11-23T11:53:53;7.60;1.00
9393;DHT22;4736;52.508;13.422;2022-11-23T11:57:02;7.70;1.00
9393;DHT22;4736;52.508;13.422;2022-11-23T12:00:12;7.70;1.00
9393;DHT22;4736;52.508;13.422;2022-11-23T12:03:21;7.70;1.00
9393;DHT22;4736;52.508;13.422;2022-11-23T12:06:32;7.70;1.00
9393;DHT22;4736;52.508;13.422;2022-11-23T12:09:39;7.60;1.00
9393;DHT22;4736;52.508;13.422;2022-11-23T12:12:46;7.80;1.00
9393;DHT22;4736;52.508;13.422;2022-11-23T12:15:55;7.90;1.00
9393;DHT22;4736;52.508;13.422;2022-11-23T12:19:08;8.00;1.00
9393;DHT22;4736;52.508;13.422;2022-11-23T12:22:29;7.90;1.00
9393;DHT22;4736;52.508;13.422;2022-11-23T12:25:38;7.90;1.00
9393;DHT22;4736;52.508;13.422;2022-11-23T12:29:00;7.80;1.00
9393;DHT22;4736;52.508;13.422;2022-11-23T12:32:14;7.80;1.00
9393;DHT22;4736;52.508;13.422;2022-11-23T12:35:38;7.70;1.00
9393;DHT22;4736;52.508;13.422;2022-11-23T12:38:52;7.60;1.00
9393;DHT22;4736;52.508;13.422;2022-11-23T12:42:00;7.50;1.00
9393;DHT22;4736;52.508;13.422;2022-11-23T12:45:21;7.50;1.00
9393;DHT22;4736;52.508;13.422;2022-11-23T12:48:45;7.50;1.00
9393;DHT22;4736;52.508;13.422;2022-11-23T12:51:56;7.40;1.00
9393;DHT22;4736;52.508;13.422;2022-11-23T12:55:14;7.40;1.00
9393;DHT22;4736;52.508;13.422;2022-11-23T12:58:24;7.40;1.00
9393;DHT22;4736;52.508;13.422;2022-11-23T13:01:34;7.30;1.00
9393;DHT22;4736;52.508;13.422;2022-11-23T13:04:51;7.40;1.00
9393;DHT22;4736;52.508;13.422;2022-11-23T13:08:16;7.40;1.00
9393;DHT22;4736;52.508;13.422;2022-11-23T13:11:33;7.40;1.00
9393;DHT22;4736;52.508;13.422;2022-11-23T13:14:45;7.40;1.00
9393;DHT22;4736;52.508;13.422;2022-11-23T13:17:56;7.40;1.00
9393;DHT22;4736;52.508;13.422;2022-11-23T13:21:14;7.50;1.00
9393;DHT22;4736;52.508;13.422;2022-11-23T13:24:27;7.50;1.00
9393;DHT22;4736;52.508;13.422;2022-11-23T13:27:43;7.40;1.00
9393;DHT22;4736;52.508;13.422;2022-11-23T13:31:17;7.40;1.00
9393;DHT22;4736;52.508;13.422;2022-11-23T13:34:43;7.50;1.00
9393;DHT22;4736;52.508;13.422;2022-11-23T13:38:18;7.50;1.00
9393;DHT22;4736;52.508;13.422;2022-11-23T13:41:56;7.50;1.00
9393;DHT22;4736;52.508;13.422;2022-11-23T13:45:25;7.50;1.00
9393;DHT22;4736;52.508;13.422;2022-11-23T13:48:29;7.50;1.00
9393;DHT22;4736;52.508;13.422;2022-11-23T13:55:32;7.40;1.00
9393;DHT22;4736;52.508;13.422;2022-11-23T13:58:38;7.30;1.00
9393;DHT22;4736;52.508;13.422;2022-11-23T14:01:58;7.40;1.00
9393;DHT22;4736;52.508;13.422;2022-11-23T14:09:02;7.10;1.00
9393;DHT22;4736;52.508;13.422;2022-11-23T14:12:13;7.10;1.00
9393;DHT22;4736;52.508;13.422;2022-11-23T14:15:20;7.10;1.00
9393;DHT22;4736;52.508;13.422;2022-11-23T14:18:48;7.10;1.00
9393;DHT22;4736;52.508;13.422;2022-11-23T14:22:00;7.10;1.00
9393;DHT22;4736;52.508;13.422;2022-11-23T14:25:33;7.10;1.00
9393;DHT22;4736;52.508;13.422;2022-11-23T14:28:45;7.00;1.00
9393;DHT22;4736;52.508;13.422;2022-11-23T14:32:02;7.00;1.00
9393;DHT22;4736;52.508;13.422;2022-11-23T14:35:21;6.90;1.00
9393;DHT22;4736;52.508;13.422;2022-11-23T14:38:53;6.80;1.00
9393;DHT22;4736;52.508;13.422;2022-11-23T14:42:02;6.70;1.00
9393;DHT22;4736;52.508;13.422;2022-11-23T14:45:12;6.80;1.00
9393;DHT22;4736;52.508;13.422;2022-11-23T14:48:19;6.50;1.00
9393;DHT22;4736;52.508;13.422;2022-11-23T14:51:23;6.40;1.00
9393;DHT22;4736;52.508;13.422;2022-11-23T14:54:28;6.30;1.00
9393;DHT22;4736;52.508;13.422;2022-11-23T14:57:38;6.30;1.00
9393;DHT22;4736;52.508;13.422;2022-11-23T15:00:42;6.20;1.00
9393;DHT22;4736;52.508;13.422;2022-11-23T15:03:55;6.10;1.00
9393;DHT22;4736;52.508;13.422;2022-11-23T15:07:00;6.00;1.00
9393;DHT22;4736;52.508;13.422;2022-11-23T15:10:15;5.90;1.00
9393;DHT22;4736;52.508;13.422;2022-11-23T15:13:24;5.80;1.00
9393;DHT22;4736;52.508;13.422;2022-11-23T15:16:27;5.80;1.00
9393;DHT22;4736;52.508;13.422;2022-11-23T15:19:31;5.70;1.00
9393;DHT22;4736;52.508;13.422;2022-11-23T15:22:35;5.70;1.00
9393;DHT22;4736;52.508;13.422;2022-11-23T15:25:49;5.60;1.00
9393;DHT22;4736;52.508;13.422;2022-11-23T15:28:54;5.50;1.00
9393;DHT22;4736;52.508;13.422;2022-11-23T15:31:57;5.50;1.00
9393;DHT22;4736;52.508;13.422;2022-11-23T15:35:20;5.40;1.00
9393;DHT22;4736;52.508;13.422;2022-11-23T15:38:25;5.40;1.00
9393;DHT22;4736;52.508;13.422;2022-11-23T15:41:29;5.30;1.00
9393;DHT22;4736;52.508;13.422;2022-11-23T15:44:37;5.30;1.00
9393;DHT22;4736;52.508;13.422;2022-11-23T15:47:40;5.30;1.00
9393;DHT22;4736;52.508;13.422;2022-11-23T15:50:47;5.30;1.00
9393;DHT22;4736;52.508;13.422;2022-11-23T15:53:52;5.30;1.00
9393;DHT22;4736;52.508;13.422;2022-11-23T15:56:56;5.50;1.00
9393;DHT22;4736;52.508;13.422;2022-11-23T16:00:03;5.30;1.00
9393;DHT22;4736;52.508;13.422;2022-11-23T16:03:32;5.30;1.00
9393;DHT22;4736;52.508;13.422;2022-11-23T16:06:37;5.40;1.00
9393;DHT22;4736;52.508;13.422;2022-11-23T16:09:42;5.50;1.00
9393;DHT22;4736;52.508;13.422;2022-11-23T16:12:56;5.20;1.00
9393;DHT22;4736;52.508;13.422;2022-11-23T16:16:02;5.30;1.00
9393;DHT22;4736;52.508;13.422;2022-11-23T16:19:23;5.30;1.00
9393;DHT22;4736;52.508;13.422;2022-11-23T16:22:29;5.40;1.00
9393;DHT22;4736;52.508;13.422;2022-11-23T16:25:34;5.20;1.00
9393;DHT22;4736;52.508;13.422;2022-11-23T16:28:39;5.20;1.00
9393;DHT22;4736;52.508;13.422;2022-11-23T16:31:53;5.30;1.00
9393;DHT22;4736;52.508;13.422;2022-11-23T16:34:58;5.10;1.00
9393;DHT22;4736;52.508;13.422;2022-11-23T16:38:08;5.00;1.00
9393;DHT22;4736;52.508;13.422;2022-11-23T16:41:13;5.00;1.00
9393;DHT22;4736;52.508;13.422;2022-11-23T16:44:16;4.90;1.00
9393;DHT22;4736;52.508;13.422;2022-11-23T16:47:22;4.90;1.00
9393;DHT22;4736;52.508;13.422;2022-11-23T16:50:27;4.90;1.00
9393;DHT22;4736;52.508;13.422;2022-11-23T16:53:30;5.00;1.00
9393;DHT22;4736;52.508;13.422;2022-11-23T16:56:54;4.80;1.00
9393;DHT22;4736;52.508;13.422;2022-11-23T17:00:07;4.60;1.00
9393;DHT22;4736;52.508;13.422;2022-11-23T17:03:15;4.50;1.00
9393;DHT22;4736;52.508;13.422;2022-11-23T17:06:18;4.60;1.00
9393;DHT22;4736;52.508;13.422;2022-11-23T17:09:24;4.60;1.00
9393;DHT22;4736;52.508;13.422;2022-11-23T17:12:26;4.50;1.00
9393;DHT22;4736;52.508;13.422;2022-11-23T17:15:29;4.40;1.00
9393;DHT22;4736;52.508;13.422;2022-11-23T17:18:34;4.60;1.00
9393;DHT22;4736;52.508;13.422;2022-11-23T17:21:37;4.30;1.00
9393;DHT22;4736;52.508;13.422;2022-11-23T17:24:40;4.60;1.00
9393;DHT22;4736;52.508;13.422;2022-11-23T17:27:43;4.20;1.00
9393;DHT22;4736;52.508;13.422;2022-11-23T17:30:47;4.30;1.00
9393;DHT22;4736;52.508;13.422;2022-11-23T17:33:52;4.20;1.00
9393;DHT22;4736;52.508;13.422;2022-11-23T17:36:55;4.10;1.00
9393;DHT22;4736;52.508;13.422;2022-11-23T17:39:58;4.20;1.00
9393;DHT22;4736;52.508;13.422;2022-11-23T17:43:00;4.10;1.00
9393;DHT22;4736;52.508;13.422;2022-11-23T17:46:04;4.30;1.00
9393;DHT22;4736;52.508;13.422;2022-11-23T17:49:11;4.20;1.00
9393;DHT22;4736;52.508;13.422;2022-11-23T17:52:14;4.00;1.00
9393;DHT22;4736;52.508;13.422;2022-11-23T17:55:17;4.10;1.00
9393;DHT22;4736;52.508;13.422;2022-11-23T17:58:20;4.10;1.00
9393;DHT22;4736;52.508;13.422;2022-11-23T18:01:23;3.90;1.00
9393;DHT22;4736;52.508;13.422;2022-11-23T18:04:28;4.00;1.00
9393;DHT22;4736;52.508;13.422;2022-11-23T18:07:31;3.80;1.00
9393;DHT22;4736;52.508;13.422;2022-11-23T18:10:34;3.80;1.00
9393;DHT22;4736;52.508;13.422;2022-11-23T18:13:37;3.80;1.00
9393;DHT22;4736;52.508;13.422;2022-11-23T18:16:40;3.60;1.00
9393;DHT22;4736;52.508;13.422;2022-11-23T18:19:44;3.70;1.00
9393;DHT22;4736;52.508;13.422;2022-11-23T18:22:47;3.60;1.00
9393;DHT22;4736;52.508;13.422;2022-11-23T18:25:57;3.80;1.00
9393;DHT22;4736;52.508;13.422;2022-11-23T18:29:00;3.60;1.00
9393;DHT22;4736;52.508;13.422;2022-11-23T18:32:03;3.80;1.00
9393;DHT22;4736;52.508;13.422;2022-11-23T18:35:09;3.50;1.00
9393;DHT22;4736;52.508;13.422;2022-11-23T18:38:12;3.80;1.00
9393;DHT22;4736;52.508;13.422;2022-11-23T18:41:16;3.70;1.00
9393;DHT22;4736;52.508;13.422;2022-11-23T18:44:19;3.40;1.00
9393;DHT22;4736;52.508;13.422;2022-11-23T18:47:22;3.40;1.00
9393;DHT22;4736;52.508;13.422;2022-11-23T18:50:26;3.50;1.00
9393;DHT22;4736;52.508;13.422;2022-11-23T18:53:29;3.40;1.00
9393;DHT22;4736;52.508;13.422;2022-11-23T18:56:33;3.40;1.00
9393;DHT22;4736;52.508;13.422;2022-11-23T18:59:36;3.30;1.00
9393;DHT22;4736;52.508;13.422;2022-11-23T19:03:00;3.40;1.00
9393;DHT22;4736;52.508;13.422;2022-11-23T19:06:06;3.30;1.00
9393;DHT22;4736;52.508;13.422;2022-11-23T19:09:10;3.30;1.00
9393;DHT22;4736;52.508;13.422;2022-11-23T19:12:14;3.30;1.00
9393;DHT22;4736;52.508;13.422;2022-11-23T19:15:17;3.30;1.00
9393;DHT22;4736;52.508;13.422;2022-11-23T19:18:21;3.30;1.00
9393;DHT22;4736;52.508;13.422;2022-11-23T19:21:27;3.40;1.00
9393;DHT22;4736;52.508;13.422;2022-11-23T19:24:30;3.40;1.00
9393;DHT22;4736;52.508;13.422;2022-11-23T19:27:33;3.10;1.00
9393;DHT22;4736;52.508;13.422;2022-11-23T19:30:37;3.20;1.00
9393;DHT22;4736;52.508;13.422;2022-11-23T19:33:41;3.10;1.00
9393;DHT22;4736;52.508;13.422;2022-11-23T19:36:45;3.10;1.00
9393;DHT22;4736;52.508;13.422;2022-11-23T19:39:48;3.00;1.00
9393;DHT22;4736;52.508;13.422;2022-11-23T19:42:51;3.00;1.00
9393;DHT22;4736;52.508;13.422;2022-11-23T19:45:54;3.20;1.00
9393;DHT22;4736;52.508;13.422;2022-11-23T19:48:58;3.10;1.00
9393;DHT22;4736;52.508;13.422;2022-11-23T19:52:02;3.00;1.00
9393;DHT22;4736;52.508;13.422;2022-11-23T19:55:06;3.10;1.00
9393;DHT22;4736;52.508;13.422;2022-11-23T19:58:10;3.10;1.00
9393;DHT22;4736;52.508;13.422;2022-11-23T20:01:14;2.90;1.00
9393;DHT22;4736;52.508;13.422;2022-11-23T20:04:17;2.70;1.00
9393;DHT22;4736;52.508;13.422;2022-11-23T20:07:22;2.80;1.00
9393;DHT22;4736;52.508;13.422;2022-11-23T20:10:25;2.90;1.00
9393;DHT22;4736;52.508;13.422;2022-11-23T20:13:28;2.70;1.00
9393;DHT22;4736;52.508;13.422;2022-11-23T20:16:31;2.80;1.00
9393;DHT22;4736;52.508;13.422;2022-11-23T20:19:34;2.80;1.00
9393;DHT22;4736;52.508;13.422;2022-11-23T20:22:39;2.70;1.00
9393;DHT22;4736;52.508;13.422;2022-11-23T20:25:43;2.80;1.00
9393;DHT22;4736;52.508;13.422;2022-11-23T20:28:49;2.80;1.00
9393;DHT22;4736;52.508;13.422;2022-11-23T20:31:53;2.90;1.00
9393;DHT22;4736;52.508;13.422;2022-11-23T20:34:56;2.80;1.00
9393;DHT22;4736;52.508;13.422;2022-11-23T20:38:00;2.80;1.00
9393;DHT22;4736;52.508;13.422;2022-11-23T20:41:11;2.80;1.00
9393;DHT22;4736;52.508;13.422;2022-11-23T20:44:14;2.80;1.00